createdAt,value
2018-12-30T00:00:59.780Z,1.00
2018-12-30T00:03:28.028Z,1.00
2018-12-30T00:05:56.893Z,1.00
2018-12-30T00:08:25.428Z,0.90
2018-12-30T00:10:53.958Z,0.90
2018-12-30T00:13:22.591Z,1.00
2018-12-30T00:15:50.686Z,0.90
2018-12-30T00:18:18.968Z,0.80
2018-12-30T00:20:47.053Z,0.90
2018-12-30T00:23:15.499Z,0.90
2018-12-30T00:25:43.704Z,1.00
2018-12-30T00:28:11.874Z,1.10
2018-12-30T00:30:40.437Z,1.20
2018-12-30T00:33:08.680Z,1.30
2018-12-30T00:35:36.837Z,1.30
2018-12-30T00:38:05.552Z,1.30
2018-12-30T00:40:34.107Z,1.40
2018-12-30T00:43:03.193Z,1.40
2018-12-30T00:45:31.722Z,1.50
2018-12-30T00:48:00.253Z,1.60
2018-12-30T00:50:28.341Z,1.60
2018-12-30T00:52:56.468Z,1.60
2018-12-30T00:55:24.895Z,1.70
2018-12-30T00:57:53.481Z,1.60
2018-12-30T01:00:21.546Z,1.70
2018-12-30T01:02:49.689Z,1.70
2018-12-30T01:05:17.810Z,1.70
2018-12-30T01:07:45.932Z,1.70
2018-12-30T01:10:14.111Z,1.70
2018-12-30T01:12:42.224Z,1.70
2018-12-30T01:15:10.504Z,1.70
2018-12-30T01:17:38.636Z,1.60
2018-12-30T01:20:07.008Z,1.60
2018-12-30T01:22:35.651Z,1.50
2018-12-30T01:25:04.161Z,1.50
2018-12-30T01:27:32.233Z,1.50
2018-12-30T01:30:00.357Z,1.50
2018-12-30T01:32:28.757Z,1.50
2018-12-30T01:34:57.629Z,1.50
2018-12-30T01:37:25.808Z,1.50
2018-12-30T01:39:53.984Z,1.50
2018-12-30T01:42:22.140Z,1.50
2018-12-30T01:44:50.314Z,1.50
2018-12-30T01:47:18.425Z,1.60
2018-12-30T01:49:46.513Z,1.50
2018-12-30T01:52:14.741Z,1.50
2018-12-30T01:54:42.909Z,1.50
2018-12-30T01:57:11.029Z,1.40
2018-12-30T01:59:39.153Z,1.40
2018-12-30T02:02:07.584Z,1.30
2018-12-30T02:04:35.657Z,1.30
2018-12-30T02:07:03.980Z,1.30
2018-12-30T02:09:32.492Z,1.20
2018-12-30T02:12:00.619Z,1.20
2018-12-30T02:14:28.698Z,1.20
2018-12-30T02:16:56.908Z,1.10
2018-12-30T02:19:24.979Z,1.10
2018-12-30T02:21:53.272Z,1.10
2018-12-30T02:24:21.440Z,1.10
2018-12-30T02:26:49.572Z,1.20
2018-12-30T02:29:18.203Z,1.10
2018-12-30T02:31:46.280Z,1.00
2018-12-30T02:34:14.501Z,1.00
2018-12-30T02:36:42.651Z,1.00
2018-12-30T02:39:10.821Z,1.00
2018-12-30T02:41:39.586Z,1.00
2018-12-30T02:44:07.822Z,1.00
2018-12-30T02:46:36.329Z,1.00
2018-12-30T02:49:04.631Z,0.90
2018-12-30T02:51:32.778Z,0.90
2018-12-30T02:54:01.258Z,0.90
2018-12-30T02:56:29.439Z,1.00
2018-12-30T02:58:57.534Z,0.90
2018-12-30T03:01:25.668Z,0.90
2018-12-30T03:03:53.730Z,0.90
2018-12-30T03:06:22.283Z,0.90
2018-12-30T03:08:50.349Z,0.90
2018-12-30T03:11:18.566Z,0.90
2018-12-30T03:13:46.655Z,0.90
2018-12-30T03:16:14.752Z,0.90
2018-12-30T03:18:42.886Z,0.90
2018-12-30T03:21:11.381Z,0.90
2018-12-30T03:23:39.505Z,0.90
2018-12-30T03:26:07.586Z,1.00
2018-12-30T03:28:35.723Z,1.20
2018-12-30T03:31:03.865Z,1.30
2018-12-30T03:33:32.055Z,1.40
2018-12-30T03:36:00.189Z,1.60
2018-12-30T03:38:28.373Z,1.70
2018-12-30T03:40:56.438Z,1.70
2018-12-30T03:43:24.558Z,1.90
2018-12-30T03:45:52.662Z,2.00
2018-12-30T03:48:21.157Z,2.20
2018-12-30T03:50:49.430Z,2.20
2018-12-30T03:53:17.504Z,2.20
2018-12-30T03:55:45.973Z,2.30
2018-12-30T03:58:14.062Z,2.40
2018-12-30T04:00:42.197Z,2.40
2018-12-30T04:03:10.379Z,2.40
2018-12-30T04:05:38.498Z,2.40
2018-12-30T04:08:06.791Z,2.40
2018-12-30T04:10:34.917Z,2.40
2018-12-30T04:13:03.138Z,2.40
2018-12-30T04:15:31.261Z,2.40
2018-12-30T04:17:59.794Z,2.40
2018-12-30T04:20:27.918Z,2.40
2018-12-30T04:22:55.994Z,2.40
2018-12-30T04:25:24.637Z,2.40
2018-12-30T04:27:52.710Z,2.40
2018-12-30T04:30:20.830Z,2.40
2018-12-30T04:32:48.896Z,2.40
2018-12-30T04:35:17.024Z,2.40
2018-12-30T04:37:45.148Z,2.40
2018-12-30T04:40:13.265Z,2.50
2018-12-30T04:42:41.349Z,2.50
2018-12-30T04:45:09.470Z,2.50
2018-12-30T04:47:37.603Z,2.50
2018-12-30T04:50:05.946Z,2.60
2018-12-30T04:52:34.020Z,2.60
2018-12-30T04:55:02.155Z,2.60
2018-12-30T04:57:30.213Z,2.70
2018-12-30T04:59:58.834Z,2.40
2018-12-30T05:02:26.909Z,2.70
2018-12-30T05:04:55.153Z,2.70
2018-12-30T05:07:23.320Z,2.70
2018-12-30T05:09:51.445Z,2.60
2018-12-30T05:12:19.514Z,2.70
2018-12-30T05:14:48.418Z,2.80
2018-12-30T05:17:16.629Z,2.90
2018-12-30T05:19:44.742Z,3.00
2018-12-30T05:22:12.837Z,3.10
2018-12-30T05:24:41.065Z,3.10
2018-12-30T05:27:09.214Z,3.10
2018-12-30T05:29:37.570Z,3.20
2018-12-30T05:32:05.752Z,3.20
2018-12-30T05:34:33.879Z,3.20
2018-12-30T05:37:02.110Z,3.20
2018-12-30T05:39:30.236Z,2.80
2018-12-30T05:41:58.297Z,3.00
2018-12-30T05:44:26.517Z,3.00
2018-12-30T05:46:54.613Z,3.00
2018-12-30T05:49:23.177Z,2.90
2018-12-30T05:51:51.247Z,2.80
2018-12-30T05:54:19.375Z,2.80
2018-12-30T05:56:47.466Z,2.80
2018-12-30T05:59:15.694Z,2.80
2018-12-30T06:01:44.193Z,2.70
2018-12-30T06:04:12.840Z,2.70
2018-12-30T06:06:40.918Z,2.60
2018-12-30T06:09:08.992Z,2.70
2018-12-30T06:11:37.114Z,2.70
2018-12-30T06:14:05.195Z,2.70
2018-12-30T06:16:33.312Z,2.80
2018-12-30T06:19:01.383Z,2.80
2018-12-30T06:21:29.508Z,2.70
2018-12-30T06:23:57.589Z,2.70
2018-12-30T06:26:25.709Z,2.80
2018-12-30T06:28:53.936Z,2.90
2018-12-30T06:31:22.490Z,2.90
2018-12-30T06:33:50.561Z,3.00
2018-12-30T06:36:18.828Z,3.00
2018-12-30T06:38:46.958Z,3.00
2018-12-30T06:41:15.085Z,3.00
2018-12-30T06:43:43.167Z,3.00
2018-12-30T06:46:11.302Z,3.00
2018-12-30T06:48:39.372Z,3.00
2018-12-30T06:51:07.930Z,2.90
2018-12-30T06:53:36.016Z,2.90
2018-12-30T06:56:04.289Z,2.90
2018-12-30T06:58:32.364Z,2.90
2018-12-30T07:01:00.485Z,3.00
2018-12-30T07:03:28.555Z,3.00
2018-12-30T07:05:56.669Z,3.00
2018-12-30T07:08:24.765Z,3.10
2018-12-30T07:10:52.888Z,3.20
2018-12-30T07:13:20.970Z,3.20
2018-12-30T07:15:49.098Z,3.20
2018-12-30T07:18:17.167Z,3.20
2018-12-30T07:20:45.290Z,3.20
2018-12-30T07:23:13.374Z,3.30
2018-12-30T07:25:41.898Z,3.30
2018-12-30T07:28:09.967Z,3.30
2018-12-30T07:30:38.146Z,3.40
2018-12-30T07:33:06.632Z,3.40
2018-12-30T07:35:34.761Z,3.40
2018-12-30T07:38:02.876Z,3.40
2018-12-30T07:40:30.997Z,3.40
2018-12-30T07:42:59.068Z,3.40
2018-12-30T07:45:27.748Z,3.60
2018-12-30T07:47:55.813Z,3.60
2018-12-30T07:50:23.936Z,3.70
2018-12-30T07:52:52.549Z,3.70
2018-12-30T07:55:20.767Z,3.80
2018-12-30T07:57:48.836Z,3.80
2018-12-30T08:00:16.988Z,3.80
2018-12-30T08:02:45.052Z,4.00
2018-12-30T08:05:13.276Z,4.10
2018-12-30T08:07:41.337Z,4.30
2018-12-30T08:10:09.577Z,4.50
2018-12-30T08:12:37.645Z,4.60
2018-12-30T08:15:06.111Z,4.80
2018-12-30T08:17:34.172Z,4.80
2018-12-30T08:20:02.254Z,4.90
2018-12-30T08:22:30.365Z,5.40
2018-12-30T08:24:58.434Z,5.70
2018-12-30T08:27:26.611Z,5.80
2018-12-30T08:29:54.693Z,6.00
2018-12-30T08:32:22.812Z,6.20
2018-12-30T08:34:50.881Z,6.30
2018-12-30T08:37:19.004Z,6.50
2018-12-30T08:39:47.598Z,6.70
2018-12-30T08:42:15.713Z,6.70
2018-12-30T08:44:43.785Z,6.90
2018-12-30T08:47:11.905Z,7.00
2018-12-30T08:49:39.988Z,7.10
2018-12-30T08:52:08.096Z,7.40
2018-12-30T08:54:36.160Z,7.60
2018-12-30T08:57:04.479Z,7.80
2018-12-30T08:59:32.576Z,8.00
2018-12-30T09:02:00.704Z,8.00
2018-12-30T09:04:29.005Z,8.20
2018-12-30T09:06:57.282Z,8.20
2018-12-30T09:09:25.480Z,8.30
2018-12-30T09:11:53.761Z,8.40
2018-12-30T09:14:22.300Z,8.50
2018-12-30T09:16:52.861Z,8.60
2018-12-30T09:19:21.021Z,8.70
2018-12-30T09:21:49.301Z,8.80
2018-12-30T09:24:17.400Z,8.90
2018-12-30T09:26:45.580Z,9.00
2018-12-30T09:29:13.645Z,9.10
2018-12-30T09:31:41.792Z,9.20
2018-12-30T09:34:09.920Z,9.30
2018-12-30T09:36:38.140Z,9.40
2018-12-30T09:39:07.338Z,9.50
2018-12-30T09:41:35.562Z,9.50
2018-12-30T09:44:03.876Z,9.70
2018-12-30T09:46:32.207Z,9.80
2018-12-30T09:49:00.300Z,9.90
2018-12-30T09:51:28.519Z,10.00
2018-12-30T09:53:57.072Z,10.10
2018-12-30T09:56:25.265Z,10.20
2018-12-30T09:58:53.749Z,10.30
2018-12-30T10:01:21.993Z,10.40
2018-12-30T10:03:50.506Z,10.50
2018-12-30T10:06:18.750Z,10.70
2018-12-30T10:08:46.956Z,10.80
2018-12-30T10:11:15.121Z,10.90
2018-12-30T10:13:43.277Z,11.00
2018-12-30T10:16:11.521Z,11.20
2018-12-30T10:18:39.637Z,11.30
2018-12-30T10:21:07.870Z,11.40
2018-12-30T10:23:36.067Z,11.50
2018-12-30T10:26:04.441Z,11.70
2018-12-30T10:28:32.643Z,11.80
2018-12-30T10:31:01.553Z,11.90
2018-12-30T10:33:31.592Z,12.10
2018-12-30T10:35:59.723Z,12.20
2018-12-30T10:38:28.012Z,12.40
2018-12-30T10:40:56.432Z,12.50
2018-12-30T10:43:24.569Z,12.80
2018-12-30T10:45:52.784Z,12.90
2018-12-30T10:48:20.896Z,13.10
2018-12-30T10:50:48.980Z,13.20
2018-12-30T10:53:17.283Z,13.30
2018-12-30T10:55:45.881Z,13.40
2018-12-30T10:58:14.002Z,13.50
2018-12-30T11:00:42.270Z,13.60
2018-12-30T11:03:10.820Z,13.70
2018-12-30T11:05:38.997Z,13.80
2018-12-30T11:08:07.108Z,13.90
2018-12-30T11:10:35.181Z,14.00
2018-12-30T11:13:03.557Z,14.10
2018-12-30T11:15:32.199Z,14.30
2018-12-30T11:18:00.313Z,14.40
2018-12-30T11:20:28.375Z,14.40
2018-12-30T11:22:56.590Z,14.50
2018-12-30T11:25:24.656Z,14.50
2018-12-30T11:27:52.772Z,14.60
2018-12-30T11:30:20.840Z,14.70
2018-12-30T11:32:48.974Z,14.70
2018-12-30T11:35:17.037Z,14.80
2018-12-30T11:37:45.173Z,14.80
2018-12-30T11:40:13.401Z,14.90
2018-12-30T11:42:41.540Z,15.00
2018-12-30T11:45:09.696Z,15.00
2018-12-30T11:47:37.830Z,15.10
2018-12-30T11:50:07.308Z,15.20
2018-12-30T11:52:35.547Z,15.30
2018-12-30T11:55:03.928Z,15.30
2018-12-30T11:57:32.067Z,15.30
2018-12-30T12:00:00.255Z,15.40
2018-12-30T12:02:28.355Z,15.40
2018-12-30T12:04:56.413Z,15.40
2018-12-30T12:07:25.100Z,15.50
2018-12-30T12:09:53.165Z,15.40
2018-12-30T12:12:21.279Z,15.50
2018-12-30T12:14:49.555Z,15.40
2018-12-30T12:17:17.664Z,15.40
2018-12-30T12:19:45.725Z,15.30
2018-12-30T12:22:13.852Z,15.30
2018-12-30T12:24:42.393Z,15.20
2018-12-30T12:27:10.605Z,15.30
2018-12-30T12:29:38.661Z,15.30
2018-12-30T12:32:06.782Z,15.20
2018-12-30T12:34:34.852Z,15.20
2018-12-30T12:37:03.066Z,15.20
2018-12-30T12:39:31.190Z,15.20
2018-12-30T12:41:59.406Z,15.20
2018-12-30T12:44:27.771Z,15.20
2018-12-30T12:46:56.048Z,15.20
2018-12-30T12:49:25.854Z,15.20
2018-12-30T12:51:54.029Z,15.20
2018-12-30T12:54:22.145Z,15.20
2018-12-30T12:56:50.432Z,15.20
2018-12-30T12:59:18.614Z,15.20
2018-12-30T13:01:48.179Z,15.30
2018-12-30T13:04:17.052Z,15.30
2018-12-30T13:06:45.172Z,15.30
2018-12-30T13:09:13.382Z,15.40
2018-12-30T13:11:41.472Z,15.40
2018-12-30T13:14:09.664Z,15.40
2018-12-30T13:16:37.749Z,15.40
2018-12-30T13:19:05.894Z,15.40
2018-12-30T13:21:34.082Z,15.40
2018-12-30T13:24:03.288Z,15.40
2018-12-30T13:26:31.505Z,15.30
2018-12-30T13:28:59.720Z,15.30
2018-12-30T13:31:28.530Z,15.30
2018-12-30T13:33:56.721Z,15.30
2018-12-30T13:36:25.370Z,15.40
2018-12-30T13:38:54.034Z,15.40
2018-12-30T13:41:22.269Z,15.50
2018-12-30T13:43:50.459Z,15.50
2018-12-30T13:46:18.771Z,15.60
2018-12-30T13:48:47.085Z,15.50
2018-12-30T13:51:15.381Z,15.50
2018-12-30T13:53:43.574Z,15.50
2018-12-30T13:56:11.762Z,15.50
2018-12-30T13:58:40.188Z,15.50
2018-12-30T14:01:08.381Z,15.50
2018-12-30T14:03:36.641Z,15.60
2018-12-30T14:06:04.929Z,15.50
2018-12-30T14:08:33.097Z,15.50
2018-12-30T14:11:01.328Z,15.50
2018-12-30T14:13:29.377Z,15.50
2018-12-30T14:15:58.049Z,15.40
2018-12-30T14:18:26.234Z,15.40
2018-12-30T14:20:54.354Z,15.40
2018-12-30T14:23:22.535Z,15.40
2018-12-30T14:25:52.452Z,15.30
2018-12-30T14:28:20.569Z,15.30
2018-12-30T14:30:48.784Z,15.20
2018-12-30T14:33:16.848Z,15.30
2018-12-30T14:35:45.044Z,15.10
2018-12-30T14:38:13.212Z,15.10
2018-12-30T14:40:41.632Z,15.00
2018-12-30T14:43:09.808Z,14.80
2018-12-30T14:45:37.889Z,14.80
2018-12-30T14:48:06.021Z,14.70
2018-12-30T14:50:34.093Z,14.60
2018-12-30T14:53:02.380Z,14.50
2018-12-30T14:55:30.468Z,14.50
2018-12-30T14:57:59.053Z,14.40
2018-12-30T15:00:27.156Z,14.30
2018-12-30T15:02:56.255Z,14.10
2018-12-30T15:05:24.865Z,14.10
2018-12-30T15:07:53.022Z,14.00
2018-12-30T15:10:21.217Z,14.00
2018-12-30T15:12:49.369Z,14.00
2018-12-30T15:15:17.473Z,14.00
2018-12-30T15:17:45.601Z,13.90
2018-12-30T15:20:13.781Z,13.90
2018-12-30T15:22:41.930Z,13.90
2018-12-30T15:25:12.056Z,13.80
2018-12-30T15:27:40.441Z,13.70
2018-12-30T15:30:09.214Z,13.70
2018-12-30T15:32:37.401Z,13.60
2018-12-30T15:35:05.760Z,13.60
2018-12-30T15:37:33.981Z,13.50
2018-12-30T15:40:02.129Z,13.40
2018-12-30T15:42:30.265Z,13.40
2018-12-30T15:44:58.478Z,13.30
2018-12-30T15:47:26.605Z,13.30
2018-12-30T15:49:55.744Z,13.30
2018-12-30T15:52:28.976Z,13.20
2018-12-30T15:55:19.559Z,13.20
2018-12-30T15:57:46.579Z,13.10
2018-12-30T16:00:14.918Z,13.00
2018-12-30T16:02:43.009Z,13.00
2018-12-30T16:05:11.097Z,13.00
2018-12-30T16:07:39.700Z,13.00
2018-12-30T16:10:08.551Z,12.90
2018-12-30T16:12:36.793Z,12.90
2018-12-30T16:15:05.217Z,12.80
2018-12-30T16:17:33.296Z,12.70
2018-12-30T16:20:01.532Z,12.70
2018-12-30T16:22:29.645Z,12.60
2018-12-30T16:25:11.354Z,12.60
2018-12-30T16:27:39.455Z,12.50
2018-12-30T16:30:08.904Z,12.30
2018-12-30T16:32:37.008Z,12.40
2018-12-30T16:35:05.285Z,12.40
2018-12-30T16:37:33.405Z,12.30
2018-12-30T16:40:01.559Z,12.30
2018-12-30T16:42:29.761Z,12.20
2018-12-30T16:44:57.937Z,12.20
2018-12-30T16:47:26.013Z,12.20
2018-12-30T16:49:54.928Z,12.20
2018-12-30T16:52:23.417Z,12.20
2018-12-30T16:54:51.557Z,12.20
2018-12-30T16:57:20.118Z,12.30
2018-12-30T16:59:48.234Z,12.30
2018-12-30T17:02:16.325Z,12.40
2018-12-30T17:04:44.565Z,12.40
2018-12-30T17:07:12.766Z,12.40
2018-12-30T17:09:40.918Z,12.50
2018-12-30T17:12:09.121Z,12.60
2018-12-30T17:14:37.245Z,12.70
2018-12-30T17:17:06.477Z,12.70
2018-12-30T17:19:34.788Z,12.70
2018-12-30T17:22:02.977Z,12.80
2018-12-30T17:24:31.132Z,12.90
2018-12-30T17:26:59.598Z,12.90
2018-12-30T17:29:27.749Z,12.90
2018-12-30T17:31:55.840Z,13.00
2018-12-30T17:34:23.988Z,13.00
2018-12-30T17:36:52.060Z,13.00
2018-12-30T17:39:20.256Z,13.10
2018-12-30T17:41:48.492Z,13.00
2018-12-30T17:44:17.487Z,13.10
2018-12-30T17:46:45.701Z,13.10
2018-12-30T17:49:13.913Z,13.20
2018-12-30T17:51:41.998Z,13.20
2018-12-30T17:54:15.107Z,13.20
2018-12-30T17:56:40.033Z,13.20
2018-12-30T17:59:14.942Z,13.20
2018-12-30T18:01:43.505Z,13.10
2018-12-30T18:04:11.676Z,13.20
2018-12-30T18:06:39.784Z,13.20
2018-12-30T18:09:07.933Z,13.20
2018-12-30T18:11:36.028Z,13.30
2018-12-30T18:14:04.251Z,13.40
2018-12-30T18:16:32.354Z,13.40
2018-12-30T18:19:00.861Z,13.40
2018-12-30T18:21:28.942Z,13.50
2018-12-30T18:24:00.796Z,13.60
2018-12-30T18:26:28.881Z,13.60
2018-12-30T18:28:57.013Z,13.60
2018-12-30T18:31:36.878Z,13.60
2018-12-30T18:34:11.466Z,13.60
2018-12-30T18:36:43.964Z,13.50
2018-12-30T18:39:16.312Z,13.50
2018-12-30T18:41:44.555Z,13.50
2018-12-30T18:44:14.095Z,13.50
2018-12-30T18:46:42.232Z,13.60
2018-12-30T18:49:10.349Z,13.50
2018-12-30T18:51:38.488Z,13.40
2018-12-30T18:58:54.183Z,13.30
2018-12-30T19:01:22.339Z,13.10
2018-12-30T19:03:50.445Z,12.90
2018-12-30T19:06:20.519Z,12.60
2018-12-30T19:08:48.596Z,12.60
2018-12-30T19:11:19.456Z,12.50
2018-12-30T19:13:47.546Z,12.30
2018-12-30T19:16:15.862Z,12.10
2018-12-30T19:18:44.089Z,12.00
2018-12-30T19:21:12.176Z,11.80
2018-12-30T19:23:40.309Z,11.70
2018-12-30T19:26:14.284Z,11.40
2018-12-30T19:28:38.699Z,11.20
2018-12-30T19:31:14.557Z,11.20
2018-12-30T19:33:46.352Z,11.20
2018-12-30T19:36:26.213Z,11.20
2018-12-30T19:39:00.375Z,11.20
2018-12-30T19:41:33.193Z,11.10
2018-12-30T19:44:01.509Z,11.10
2018-12-30T19:46:29.643Z,11.10
2018-12-30T19:48:58.876Z,11.10
2018-12-30T19:51:26.965Z,11.00
2018-12-30T19:53:55.060Z,11.00
2018-12-30T19:56:23.563Z,10.90
2018-12-30T19:58:51.657Z,11.00
2018-12-30T20:01:19.789Z,10.90
2018-12-30T20:03:47.885Z,11.00
2018-12-30T20:06:16.110Z,11.00
2018-12-30T20:08:44.604Z,10.90
2018-12-30T20:11:13.208Z,10.90
2018-12-30T20:13:41.288Z,10.80
2018-12-30T20:16:09.409Z,10.70
2018-12-30T20:18:37.496Z,10.60
2018-12-30T20:21:05.629Z,10.50
2018-12-30T20:23:34.266Z,10.40
2018-12-30T20:26:02.478Z,10.30
2018-12-30T20:28:30.560Z,10.20
2018-12-30T20:30:58.693Z,10.20
2018-12-30T20:33:26.787Z,10.20
2018-12-30T20:35:54.929Z,10.20
2018-12-30T20:38:23.117Z,10.10
2018-12-30T20:40:51.310Z,10.20
2018-12-30T20:43:19.452Z,10.00
2018-12-30T20:45:47.646Z,9.90
2018-12-30T20:48:15.825Z,9.90
2018-12-30T20:50:44.396Z,9.70
2018-12-30T20:53:12.477Z,9.70
2018-12-30T20:55:40.610Z,9.60
2018-12-30T20:58:08.702Z,9.40
2018-12-30T21:00:36.836Z,9.20
2018-12-30T21:03:05.185Z,9.20
2018-12-30T21:05:33.410Z,9.20
2018-12-30T21:08:01.498Z,9.20
2018-12-30T21:10:29.625Z,9.20
2018-12-30T21:12:58.182Z,9.10
2018-12-30T21:15:26.396Z,9.10
2018-12-30T21:17:54.485Z,9.00
2018-12-30T21:20:23.286Z,8.90
2018-12-30T21:22:51.862Z,8.80
2018-12-30T21:25:19.946Z,8.70
2018-12-30T21:27:48.072Z,8.70
2018-12-30T21:30:16.360Z,8.50
2018-12-30T21:32:44.491Z,8.50
2018-12-30T21:35:12.570Z,8.50
2018-12-30T21:37:40.705Z,8.30
2018-12-30T21:40:08.990Z,8.30
2018-12-30T21:42:43.753Z,8.30
2018-12-30T21:45:08.373Z,8.20
2018-12-30T21:47:36.894Z,8.10
2018-12-30T21:50:06.197Z,8.00
2018-12-30T21:52:34.298Z,7.90
2018-12-30T21:55:02.453Z,7.70
2018-12-30T21:57:30.554Z,7.70
2018-12-30T22:00:01.095Z,7.50
2018-12-30T22:02:29.182Z,7.50
2018-12-30T22:04:57.721Z,7.50
2018-12-30T22:07:25.839Z,7.50
2018-12-30T22:09:54.371Z,7.50
2018-12-30T22:12:22.520Z,7.40
2018-12-30T22:14:50.673Z,7.30
2018-12-30T22:17:19.169Z,7.30
2018-12-30T22:19:47.284Z,7.30
2018-12-30T22:22:15.420Z,7.20
2018-12-30T22:24:43.948Z,7.20
2018-12-30T22:27:15.271Z,7.10
2018-12-30T22:29:43.388Z,7.10
2018-12-30T22:32:11.521Z,7.10
2018-12-30T22:34:39.727Z,7.00
2018-12-30T22:37:07.896Z,7.00
2018-12-30T22:39:35.988Z,6.90
2018-12-30T22:42:04.226Z,6.80
2018-12-30T22:44:32.349Z,6.80
2018-12-30T22:47:00.490Z,6.70
2018-12-30T22:49:28.585Z,6.70
2018-12-30T22:51:56.747Z,6.60
2018-12-30T22:54:24.839Z,6.60
2018-12-30T22:56:52.967Z,6.50
2018-12-30T22:59:21.059Z,6.40
2018-12-30T23:01:49.424Z,6.50
2018-12-30T23:04:17.497Z,6.40
2018-12-30T23:06:45.737Z,6.40
2018-12-30T23:09:13.961Z,6.40
2018-12-30T23:11:42.528Z,6.30
2018-12-30T23:14:10.610Z,6.30
2018-12-30T23:16:39.197Z,6.20
2018-12-30T23:19:07.289Z,6.20
2018-12-30T23:21:35.783Z,6.10
2018-12-30T23:24:03.972Z,6.00
2018-12-30T23:26:32.098Z,5.90
2018-12-30T23:29:00.174Z,5.90
2018-12-30T23:31:28.729Z,5.80
2018-12-30T23:33:56.814Z,5.70
2018-12-30T23:36:24.953Z,5.70
2018-12-30T23:38:53.041Z,5.80
2018-12-30T23:41:21.161Z,5.60
2018-12-30T23:43:49.411Z,5.50
2018-12-30T23:46:17.603Z,5.50
2018-12-30T23:48:45.684Z,5.40
2018-12-30T23:51:13.824Z,5.30
2018-12-30T23:53:42.432Z,5.30
2018-12-30T23:56:10.575Z,5.30
2018-12-30T23:58:38.656Z,5.20
